Time;durP1;ratioP1;P1;durP2;ratioP2;P2;SDS_P1;SDS_P2;PMS_P1;PMS_P2;Temp;Humidity;BMP_temperature;BMP_pressure;BME280_temperature;BME280_humidity;BME280_pressure;Samples;Min_cycle;Max_cycle;Signal;HPM_P1;HPM_P2
2023/08/20 00:01:17;;;;;;;15.18;7.60;;;20.40;99.90;;;;;;5025909;28;20026;-65
2023/08/20 00:03:46;;;;;;;7.03;5.93;;;20.40;99.90;;;;;;5025095;28;20087;-65
2023/08/20 00:06:11;;;;;;;15.13;6.85;;;20.40;99.90;;;;;;5022805;28;20068;-65
2023/08/20 00:08:37;;;;;;;11.98;6.90;;;20.50;99.90;;;;;;5016389;28;20120;-64
2023/08/20 00:11:05;;;;;;;9.32;6.97;;;20.50;99.90;;;;;;5019393;28;20057;-66
2023/08/20 00:13:31;;;;;;;11.20;7.07;;;20.60;99.90;;;;;;5022520;28;20025;-65
2023/08/20 00:15:57;;;;;;;10.02;6.97;;;20.60;99.90;;;;;;5021256;28;20040;-65
2023/08/20 00:18:22;;;;;;;10.43;6.60;;;20.60;99.90;;;;;;5020782;28;20048;-64
2023/08/20 00:20:48;;;;;;;8.30;6.40;;;20.60;99.90;;;;;;5024709;28;20064;-65
2023/08/20 00:23:14;;;;;;;11.73;7.10;;;20.40;99.90;;;;;;5022025;28;20152;-65
2023/08/20 00:25:40;;;;;;;9.30;6.10;;;20.40;99.90;;;;;;5037370;28;20483;-65
2023/08/20 00:28:06;;;;;;;10.27;7.05;;;20.30;99.90;;;;;;5022902;28;20029;-64
2023/08/20 00:30:31;;;;;;;12.68;7.75;;;20.30;99.90;;;;;;5018144;28;20038;-65
2023/08/20 00:32:57;;;;;;;12.68;7.00;;;20.30;99.90;;;;;;5023830;28;20667;-65
2023/08/20 00:35:22;;;;;;;12.38;7.55;;;20.30;99.90;;;;;;5012287;28;20049;-66
2023/08/20 00:37:48;;;;;;;15.70;7.38;;;20.30;99.90;;;;;;5026134;28;20118;-63
2023/08/20 00:40:14;;;;;;;9.68;7.07;;;20.30;99.90;;;;;;5022023;28;20064;-64
2023/08/20 00:42:40;;;;;;;10.02;6.68;;;20.30;99.90;;;;;;5000599;28;20051;-64
2023/08/20 00:45:06;;;;;;;12.85;7.78;;;20.30;99.90;;;;;;5023663;28;20037;-65
2023/08/20 00:47:31;;;;;;;12.10;8.18;;;20.30;99.90;;;;;;5027699;28;20103;-65
2023/08/20 00:49:58;;;;;;;15.85;8.48;;;20.20;99.90;;;;;;5024183;28;20774;-64
2023/08/20 00:52:24;;;;;;;9.77;7.10;;;20.30;99.90;;;;;;5023348;28;20036;-64
2023/08/20 00:54:50;;;;;;;13.25;7.45;;;20.30;99.90;;;;;;5024196;28;20103;-65
2023/08/20 00:57:17;;;;;;;10.55;7.35;;;20.20;99.90;;;;;;5026484;28;20158;-65
2023/08/20 00:59:44;;;;;;;10.40;6.63;;;20.20;99.90;;;;;;5027757;28;20026;-65
2023/08/20 01:02:10;;;;;;;11.77;6.75;;;20.20;99.90;;;;;;5024173;28;20045;-65
2023/08/20 01:04:36;;;;;;;15.60;6.88;;;20.20;99.90;;;;;;5024619;28;20037;-66
2023/08/20 01:07:29;;;;;;;16.08;6.25;;;20.20;99.90;;;;;;5027179;28;20111;-66
2023/08/20 01:10:08;;;;;;;11.07;6.03;;;20.10;99.90;;;;;;5027987;28;20049;-66
2023/08/20 01:12:35;;;;;;;17.20;7.15;;;20.00;99.90;;;;;;5026559;28;20347;-66
2023/08/20 01:15:01;;;;;;;11.70;6.57;;;20.00;99.90;;;;;;5026035;28;20037;-66
2023/08/20 01:17:27;;;;;;;9.27;7.05;;;19.90;99.90;;;;;;5023184;28;20026;-70
2023/08/20 01:19:52;;;;;;;10.30;6.93;;;19.80;99.90;;;;;;5025255;28;20052;-66
2023/08/20 01:22:30;;;;;;;11.07;6.50;;;19.80;99.90;;;;;;5022690;28;20028;-67
2023/08/20 01:25:03;;;;;;;13.05;7.35;;;19.70;99.90;;;;;;5023747;28;20044;-67
2023/08/20 01:27:57;;;;;;;11.13;7.25;;;19.60;99.90;;;;;;5025166;28;20057;-66
2023/08/20 01:30:24;;;;;;;10.35;7.63;;;19.60;99.90;;;;;;5026650;28;20059;-69
2023/08/20 01:32:53;;;;;;;11.50;7.68;;;19.70;99.90;;;;;;5023405;28;20506;-66
2023/08/20 01:35:19;;;;;;;18.42;7.53;;;19.60;99.90;;;;;;5026479;28;20746;-67
2023/08/20 01:37:45;;;;;;;10.45;6.53;;;19.50;99.90;;;;;;5019870;28;20037;-66
2023/08/20 01:40:11;;;;;;;11.45;7.72;;;19.50;99.90;;;;;;5023990;28;20037;-66
2023/08/20 01:42:37;;;;;;;12.45;7.20;;;19.40;99.90;;;;;;5024425;28;20037;-65
2023/08/20 01:45:04;;;;;;;20.25;7.93;;;19.40;99.90;;;;;;5000095;28;20511;-66
2023/08/20 01:47:29;;;;;;;12.40;7.70;;;19.30;99.90;;;;;;5023746;28;20041;-66
2023/08/20 01:49:55;;;;;;;12.43;8.32;;;19.20;99.90;;;;;;5022581;28;20044;-66
2023/08/20 01:52:20;;;;;;;10.98;8.38;;;19.30;99.90;;;;;;5021821;28;20052;-66
2023/08/20 01:54:48;;;;;;;21.90;7.95;;;19.30;99.90;;;;;;5023624;28;20037;-66
2023/08/20 01:57:15;;;;;;;9.00;7.50;;;19.30;99.90;;;;;;5025020;28;20017;-67
2023/08/20 01:59:40;;;;;;;15.32;8.98;;;19.20;99.90;;;;;;5023721;28;20033;-66
2023/08/20 02:02:06;;;;;;;20.33;8.93;;;19.20;99.90;;;;;;5025186;28;20043;-67
2023/08/20 02:04:32;;;;;;;11.82;8.63;;;19.10;99.90;;;;;;5028291;28;20152;-66
2023/08/20 02:06:58;;;;;;;12.68;8.77;;;19.10;99.90;;;;;;5023918;28;20114;-66
2023/08/20 02:09:25;;;;;;;17.25;8.77;;;19.10;99.90;;;;;;5023227;28;20170;-66
2023/08/20 02:11:51;;;;;;;13.75;8.32;;;19.00;99.90;;;;;;5024837;28;20053;-66
2023/08/20 02:14:17;;;;;;;15.38;9.68;;;19.00;99.90;;;;;;5023898;28;20033;-67
2023/08/20 02:16:43;;;;;;;14.48;9.73;;;18.90;99.90;;;;;;5024103;28;20457;-68
2023/08/20 02:19:09;;;;;;;11.70;8.73;;;18.90;99.90;;;;;;5025860;28;20060;-63
2023/08/20 02:21:35;;;;;;;10.95;8.52;;;18.90;99.90;;;;;;5026379;28;20414;-66
2023/08/20 02:24:01;;;;;;;17.48;9.13;;;18.90;99.90;;;;;;5026630;28;20494;-67
2023/08/20 02:26:26;;;;;;;15.77;8.50;;;18.90;99.90;;;;;;5026342;28;20100;-65
2023/08/20 02:28:52;;;;;;;15.23;9.35;;;18.90;99.90;;;;;;5022699;28;20740;-67
2023/08/20 02:31:18;;;;;;;10.13;7.45;;;18.90;99.90;;;;;;5023944;28;20065;-66
2023/08/20 02:33:43;;;;;;;14.68;8.90;;;19.00;99.90;;;;;;5022808;28;20707;-66
2023/08/20 02:36:09;;;;;;;15.45;8.15;;;18.90;99.90;;;;;;5020765;28;20029;-67
2023/08/20 02:38:35;;;;;;;12.93;8.90;;;19.00;99.90;;;;;;5024036;28;20029;-66
2023/08/20 02:41:02;;;;;;;13.52;8.68;;;19.00;99.90;;;;;;5025119;28;20100;-66
2023/08/20 02:43:28;;;;;;;14.68;8.60;;;19.00;99.90;;;;;;4997095;28;20053;-66
2023/08/20 02:45:54;;;;;;;14.93;8.32;;;19.00;99.90;;;;;;5020327;28;20033;-67
2023/08/20 02:48:20;;;;;;;12.05;8.73;;;19.00;99.90;;;;;;5022389;28;20523;-66
2023/08/20 02:50:45;;;;;;;15.35;9.00;;;19.00;99.90;;;;;;5021966;28;20030;-66
2023/08/20 02:53:11;;;;;;;12.07;8.07;;;18.90;99.90;;;;;;5022658;28;20033;-67
2023/08/20 02:55:37;;;;;;;14.20;8.98;;;18.90;99.90;;;;;;5023719;28;20088;-66
2023/08/20 02:58:09;;;;;;;11.13;8.45;;;18.90;99.90;;;;;;5022637;28;20104;-67
2023/08/20 03:00:34;;;;;;;15.38;8.85;;;18.90;99.90;;;;;;5024390;28;20044;-67
2023/08/20 03:03:02;;;;;;;12.00;7.13;;;19.00;99.90;;;;;;5028382;28;20460;-67
2023/08/20 03:05:28;;;;;;;11.25;8.75;;;18.90;99.90;;;;;;5027732;28;20411;-66
2023/08/20 03:07:53;;;;;;;12.18;8.30;;;18.80;99.90;;;;;;5028208;28;20033;-66
2023/08/20 03:10:19;;;;;;;16.85;9.13;;;18.80;99.90;;;;;;5029171;28;20372;-67
2023/08/20 03:12:44;;;;;;;12.73;9.13;;;18.90;99.90;;;;;;5027681;28;20104;-67
2023/08/20 03:15:10;;;;;;;13.73;8.38;;;18.90;99.90;;;;;;5041305;28;20036;-65
2023/08/20 03:17:36;;;;;;;11.65;7.65;;;18.90;99.90;;;;;;5022543;28;20100;-66
2023/08/20 03:20:05;;;;;;;11.63;8.15;;;19.00;99.90;;;;;;5042464;28;20037;-64
2023/08/20 03:22:31;;;;;;;12.77;6.85;;;19.00;99.90;;;;;;5027905;28;20517;-66
2023/08/20 03:24:57;;;;;;;9.65;7.05;;;19.10;99.90;;;;;;5026999;28;20029;-67
2023/08/20 03:27:22;;;;;;;15.80;8.73;;;19.10;99.90;;;;;;5027242;28;20139;-65
2023/08/20 03:29:48;;;;;;;13.90;6.97;;;19.10;99.90;;;;;;5024718;28;20038;-67
2023/08/20 03:32:14;;;;;;;11.68;7.45;;;19.10;99.90;;;;;;5029093;28;20168;-66
2023/08/20 03:34:39;;;;;;;10.40;7.00;;;19.10;99.90;;;;;;5027264;28;20029;-68
2023/08/20 03:37:05;;;;;;;13.15;8.20;;;19.10;99.90;;;;;;5027886;28;20033;-66
2023/08/20 03:39:31;;;;;;;13.15;7.88;;;19.10;99.90;;;;;;5025356;28;20032;-66
2023/08/20 03:41:57;;;;;;;12.63;7.88;;;19.20;99.90;;;;;;5027111;28;20203;-67
2023/08/20 03:44:23;;;;;;;13.93;7.68;;;19.10;99.90;;;;;;4998323;28;20096;-64
2023/08/20 03:46:49;;;;;;;10.98;7.35;;;19.10;99.90;;;;;;5028037;28;20456;-66
2023/08/20 03:49:14;;;;;;;14.88;8.23;;;19.00;99.90;;;;;;5021990;28;20037;-67
2023/08/20 03:51:42;;;;;;;12.63;7.88;;;18.90;99.90;;;;;;5026348;28;20025;-64
2023/08/20 03:54:08;;;;;;;13.25;7.90;;;18.80;99.90;;;;;;5026576;28;20048;-66
2023/08/20 03:56:34;;;;;;;15.73;8.63;;;18.80;99.90;;;;;;5025688;28;20061;-67
2023/08/20 03:58:59;;;;;;;12.80;8.55;;;18.80;99.90;;;;;;5025575;28;20076;-66
2023/08/20 04:01:25;;;;;;;11.23;7.68;;;18.70;99.90;;;;;;5041608;28;20679;-67
2023/08/20 04:03:50;;;;;;;10.43;7.68;;;18.70;99.90;;;;;;5025009;28;20029;-66
2023/08/20 04:06:16;;;;;;;12.48;8.15;;;18.60;99.90;;;;;;5027969;28;20499;-68
2023/08/20 04:08:42;;;;;;;11.05;7.13;;;18.60;99.90;;;;;;5025511;28;20044;-67
2023/08/20 04:11:08;;;;;;;12.32;7.68;;;18.60;99.90;;;;;;5026583;28;20428;-66
2023/08/20 04:13:33;;;;;;;12.27;8.68;;;18.60;99.90;;;;;;5024023;28;20112;-66
2023/08/20 04:15:59;;;;;;;11.63;8.45;;;18.60;99.90;;;;;;5026296;28;20063;-67
2023/08/20 04:18:25;;;;;;;18.40;8.20;;;18.60;99.90;;;;;;5027275;28;20029;-64
2023/08/20 04:20:52;;;;;;;11.77;8.73;;;18.60;99.90;;;;;;5027945;28;20025;-67
2023/08/20 04:23:18;;;;;;;12.40;8.13;;;18.70;99.90;;;;;;5028089;28;20053;-68
2023/08/20 04:25:44;;;;;;;14.35;8.30;;;18.70;99.90;;;;;;5028191;28;20099;-66
2023/08/20 04:28:11;;;;;;;12.07;8.20;;;18.70;99.90;;;;;;5026101;28;20112;-66
2023/08/20 04:30:37;;;;;;;11.02;8.05;;;18.70;99.90;;;;;;5026051;28;20061;-66
2023/08/20 04:33:03;;;;;;;9.63;7.47;;;18.80;99.90;;;;;;5022937;28;20053;-67
2023/08/20 04:35:28;;;;;;;17.13;8.90;;;18.80;99.90;;;;;;5024803;28;20025;-67
2023/08/20 04:37:54;;;;;;;15.38;8.63;;;18.90;99.90;;;;;;5027748;28;20064;-65
2023/08/20 04:40:19;;;;;;;11.45;7.85;;;18.90;99.90;;;;;;5027835;28;20029;-66
2023/08/20 04:42:45;;;;;;;14.57;7.70;;;19.00;99.90;;;;;;5025216;28;20052;-67
2023/08/20 04:45:11;;;;;;;11.10;7.07;;;19.00;99.90;;;;;;4999794;28;20069;-68
2023/08/20 04:47:37;;;;;;;12.68;8.10;;;19.00;99.90;;;;;;5025652;28;20434;-67
2023/08/20 04:50:03;;;;;;;14.57;8.32;;;19.00;99.90;;;;;;5023344;28;20030;-66
2023/08/20 04:52:28;;;;;;;12.45;7.07;;;19.00;99.90;;;;;;5026032;28;20029;-68
2023/08/20 04:54:54;;;;;;;12.57;7.55;;;19.10;99.90;;;;;;5024988;28;20057;-66
2023/08/20 04:57:20;;;;;;;9.40;7.50;;;19.10;99.90;;;;;;5026136;28;20033;-66
2023/08/20 04:59:46;;;;;;;13.45;7.78;;;19.10;99.90;;;;;;5022907;28;20022;-67
2023/08/20 05:02:12;;;;;;;12.52;7.88;;;19.10;99.90;;;;;;5026451;28;20487;-67
2023/08/20 05:04:38;;;;;;;12.80;7.60;;;19.30;99.90;;;;;;5021299;28;20044;-67
2023/08/20 05:07:04;;;;;;;9.75;7.32;;;19.30;99.90;;;;;;5026136;28;20095;-67
2023/08/20 05:09:30;;;;;;;11.10;6.85;;;19.40;99.90;;;;;;5024075;28;20045;-67
2023/08/20 05:11:55;;;;;;;12.70;6.90;;;19.50;99.90;;;;;;5022047;28;20057;-66
2023/08/20 05:14:21;;;;;;;13.25;8.35;;;19.50;99.90;;;;;;5023064;28;20064;-66
2023/08/20 05:16:47;;;;;;;11.57;6.43;;;19.60;99.90;;;;;;5022303;28;20021;-65
2023/08/20 05:19:12;;;;;;;11.30;6.88;;;19.70;99.90;;;;;;5024244;28;20033;-66
2023/08/20 05:21:38;;;;;;;10.55;6.45;;;19.90;99.90;;;;;;5021102;28;20112;-64
2023/08/20 05:24:04;;;;;;;8.88;5.72;;;20.00;99.90;;;;;;5024470;28;20391;-66
2023/08/20 05:26:29;;;;;;;9.07;6.50;;;20.20;99.90;;;;;;5023852;28;20453;-67
2023/08/20 05:28:55;;;;;;;11.15;5.75;;;20.30;99.90;;;;;;5022946;28;20095;-66
2023/08/20 05:31:21;;;;;;;10.77;5.35;;;20.40;99.90;;;;;;5024991;28;20108;-68
2023/08/20 05:33:46;;;;;;;13.45;5.97;;;20.60;99.90;;;;;;5021803;28;20025;-65
2023/08/20 05:36:12;;;;;;;12.35;6.30;;;20.80;99.90;;;;;;5022052;28;20052;-67
2023/08/20 05:38:38;;;;;;;6.90;4.63;;;20.90;99.90;;;;;;5019886;28;20068;-68
2023/08/20 05:41:03;;;;;;;8.68;5.18;;;21.30;99.90;;;;;;5022637;28;20033;-66
2023/08/20 05:43:29;;;;;;;8.57;5.20;;;21.60;99.90;;;;;;4996147;28;20029;-66
2023/08/20 05:45:54;;;;;;;9.02;4.82;;;21.90;99.90;;;;;;5023794;28;20021;-66
2023/08/20 05:48:20;;;;;;;16.20;5.32;;;21.90;99.90;;;;;;5022951;28;20479;-66
2023/08/20 05:50:46;;;;;;;8.35;4.93;;;22.00;99.90;;;;;;5037444;28;20112;-66
2023/08/20 05:53:11;;;;;;;7.10;5.40;;;21.90;99.90;;;;;;5021526;28;20490;-67
2023/08/20 05:55:39;;;;;;;10.07;4.85;;;21.60;99.90;;;;;;5021171;28;21196;-66
2023/08/20 05:58:04;;;;;;;14.07;5.78;;;21.40;99.90;;;;;;5020416;28;20426;-66
2023/08/20 06:00:30;;;;;;;14.57;6.45;;;21.40;99.90;;;;;;5023778;28;20026;-67
2023/08/20 06:02:55;;;;;;;10.57;5.65;;;21.80;99.90;;;;;;5024063;28;20037;-66
2023/08/20 06:05:21;;;;;;;8.60;4.60;;;22.20;99.90;;;;;;5025584;28;20053;-67
2023/08/20 06:07:47;;;;;;;8.18;5.30;;;23.00;99.90;;;;;;5023544;28;20048;-67
2023/08/20 06:10:12;;;;;;;11.10;4.75;;;23.70;99.90;;;;;;5024945;28;20025;-65
2023/08/20 06:12:38;;;;;;;8.52;4.45;;;24.60;99.90;;;;;;5023734;28;20035;-65
2023/08/20 06:15:04;;;;;;;8.00;5.28;;;25.60;99.90;;;;;;5025102;28;20402;-65
2023/08/20 06:17:30;;;;;;;9.45;4.60;;;26.40;99.90;;;;;;5020932;28;20033;-64
2023/08/20 06:19:55;;;;;;;8.55;4.25;;;26.50;99.90;;;;;;5024302;28;20089;-64
2023/08/20 06:22:21;;;;;;;6.07;4.90;;;27.20;99.90;;;;;;5025438;28;20041;-68
2023/08/20 06:24:46;;;;;;;6.63;3.72;;;27.60;99.90;;;;;;5025427;28;20031;-65
2023/08/20 06:27:12;;;;;;;10.60;4.30;;;27.80;99.90;;;;;;5023375;28;20479;-63
2023/08/20 06:29:38;;;;;;;8.82;3.78;;;28.00;99.90;;;;;;5022812;28;20045;-65
2023/08/20 06:32:04;;;;;;;10.85;4.22;;;28.30;99.90;;;;;;5023523;28;20030;-64
2023/08/20 06:34:30;;;;;;;6.15;4.18;;;28.50;99.90;;;;;;5021619;28;20029;-65
2023/08/20 06:36:55;;;;;;;8.02;4.30;;;28.90;99.90;;;;;;5023477;28;20410;-65
2023/08/20 06:39:21;;;;;;;5.18;4.10;;;28.60;99.90;;;;;;5028634;28;20025;-64
2023/08/20 06:41:47;;;;;;;6.20;4.00;;;28.10;99.90;;;;;;5027554;28;21206;-65
2023/08/20 06:44:12;;;;;;;5.70;3.95;;;27.60;99.90;;;;;;5000647;28;20049;-64
2023/08/20 06:46:38;;;;;;;5.35;3.95;;;27.80;99.90;;;;;;5027195;28;20044;-65
2023/08/20 06:49:04;;;;;;;6.72;3.80;;;28.60;99.90;;;;;;5024003;28;20398;-64
2023/08/20 06:51:29;;;;;;;7.60;3.40;;;29.40;99.90;;;;;;5022691;28;20076;-65
2023/08/20 06:53:56;;;;;;;5.30;4.20;;;31.10;99.30;;;;;;5020760;28;20032;-64
2023/08/20 06:56:22;;;;;;;6.53;3.88;;;31.50;97.20;;;;;;5025718;28;21078;-64
2023/08/20 06:58:47;;;;;;;8.30;4.13;;;32.00;95.80;;;;;;5027335;28;20047;-65
2023/08/20 07:01:13;;;;;;;8.73;4.03;;;30.80;96.40;;;;;;5027566;28;20030;-64
2023/08/20 07:03:40;;;;;;;7.15;3.80;;;31.30;96.70;;;;;;5023802;28;20029;-66
2023/08/20 07:06:06;;;;;;;5.47;3.83;;;31.10;97.80;;;;;;5025418;28;20025;-65
2023/08/20 07:08:32;;;;;;;6.35;4.80;;;32.00;96.30;;;;;;5029106;28;20584;-64
2023/08/20 07:10:58;;;;;;;6.65;4.13;;;31.60;95.90;;;;;;5026287;28;20156;-65
2023/08/20 07:13:23;;;;;;;10.20;4.25;;;31.70;95.90;;;;;;5026396;28;20596;-65
2023/08/20 07:15:49;;;;;;;6.65;4.10;;;32.40;95.00;;;;;;5026917;28;20030;-66
2023/08/20 07:18:15;;;;;;;9.57;5.05;;;32.00;95.60;;;;;;5024028;28;20029;-65
2023/08/20 07:20:44;;;;;;;7.10;3.92;;;32.00;94.90;;;;;;5026359;28;20040;-64
2023/08/20 07:23:10;;;;;;;4.82;3.65;;;32.70;95.40;;;;;;5027426;28;20029;-66
2023/08/20 07:25:40;;;;;;;9.50;4.05;;;33.60;94.00;;;;;;5027745;28;20025;-66
2023/08/20 07:28:06;;;;;;;9.15;4.38;;;33.10;93.20;;;;;;5022415;28;20048;-63
2023/08/20 07:30:32;;;;;;;6.68;3.67;;;33.70;92.50;;;;;;5018483;28;20033;-64
2023/08/20 07:32:58;;;;;;;8.13;4.35;;;34.40;91.60;;;;;;5026780;28;20364;-65
2023/08/20 07:35:24;;;;;;;6.85;3.50;;;35.20;89.70;;;;;;5027743;28;20025;-65
2023/08/20 07:37:50;;;;;;;5.03;3.97;;;34.70;90.10;;;;;;5027385;28;20104;-65
2023/08/20 07:40:15;;;;;;;6.40;4.38;;;34.90;88.10;;;;;;5026429;28;20442;-66
2023/08/20 07:42:41;;;;;;;4.10;3.70;;;34.40;88.30;;;;;;5023066;28;20034;-64
2023/08/20 07:45:08;;;;;;;5.25;3.72;;;33.90;89.10;;;;;;4996384;28;20067;-64
2023/08/20 07:47:37;;;;;;;8.18;4.45;;;34.80;89.70;;;;;;5020318;28;20030;-65
2023/08/20 07:50:04;;;;;;;6.03;3.85;;;34.80;88.50;;;;;;5021260;28;20129;-65
2023/08/20 07:52:30;;;;;;;5.85;3.65;;;34.80;87.70;;;;;;5025279;28;20095;-65
2023/08/20 07:54:56;;;;;;;6.03;4.45;;;34.30;90.00;;;;;;5026071;28;20041;-66
2023/08/20 07:57:23;;;;;;;6.05;4.72;;;33.60;90.00;;;;;;5025553;28;20104;-64
2023/08/20 07:59:51;;;;;;;6.30;3.97;;;34.40;90.20;;;;;;5026061;28;20033;-64
2023/08/20 08:02:17;;;;;;;12.32;4.60;;;34.80;89.50;;;;;;5018752;28;20017;-64
2023/08/20 08:04:43;;;;;;;6.07;4.03;;;34.90;85.70;;;;;;5024413;28;20022;-65
2023/08/20 08:07:12;;;;;;;5.18;3.75;;;34.70;87.10;;;;;;5026858;28;20037;-65
2023/08/20 08:09:38;;;;;;;6.30;4.00;;;35.70;86.20;;;;;;5023585;28;20029;-66
2023/08/20 08:12:04;;;;;;;5.80;4.10;;;36.60;83.20;;;;;;5024623;28;20103;-68
2023/08/20 08:14:30;;;;;;;9.07;4.22;;;35.40;83.70;;;;;;5024117;28;20033;-64
2023/08/20 08:16:56;;;;;;;7.55;4.00;;;34.70;84.20;;;;;;5022304;28;20040;-64
2023/08/20 08:19:22;;;;;;;3.78;2.80;;;35.60;85.00;;;;;;5024453;28;20026;-65
2023/08/20 08:21:48;;;;;;;9.57;3.90;;;35.00;81.00;;;;;;5025296;28;20029;-65
2023/08/20 08:24:14;;;;;;;6.03;3.70;;;36.00;81.40;;;;;;5017156;28;20099;-65
2023/08/20 08:26:41;;;;;;;6.65;2.97;;;35.10;80.20;;;;;;5020037;28;20037;-65
2023/08/20 08:29:08;;;;;;;4.22;2.92;;;35.20;81.50;;;;;;5019862;28;20036;-65
2023/08/20 08:31:34;;;;;;;3.78;2.80;;;36.20;78.10;;;;;;5019898;28;20071;-65
2023/08/20 08:34:00;;;;;;;6.35;3.13;;;35.60;79.60;;;;;;5021339;28;20112;-65
2023/08/20 08:36:25;;;;;;;5.88;2.50;;;35.60;77.50;;;;;;5021436;28;20117;-65
2023/08/20 08:38:51;;;;;;;2.88;1.98;;;36.70;77.30;;;;;;5023027;28;20079;-66
2023/08/20 08:41:20;;;;;;;3.38;2.35;;;36.60;75.30;;;;;;5021798;28;20037;-66
2023/08/20 08:43:47;;;;;;;5.50;3.10;;;36.80;72.40;;;;;;4994476;28;20033;-65
2023/08/20 08:46:14;;;;;;;5.45;2.90;;;35.90;74.30;;;;;;5020918;28;20029;-67
2023/08/20 08:48:44;;;;;;;3.53;2.50;;;36.20;76.40;;;;;;5018177;28;20025;-66
2023/08/20 08:51:14;;;;;;;3.47;2.40;;;36.00;75.20;;;;;;5024471;28;20050;-65
2023/08/20 08:53:42;;;;;;;3.55;2.22;;;36.00;77.60;;;;;;5020258;28;20034;-67
2023/08/20 08:56:07;;;;;;;2.60;2.33;;;36.30;77.10;;;;;;5024155;28;20030;-67
2023/08/20 08:58:33;;;;;;;3.55;2.38;;;36.60;72.80;;;;;;5022105;28;20036;-65
2023/08/20 09:00:59;;;;;;;3.95;2.35;;;36.40;74.30;;;;;;5021167;28;20033;-64
2023/08/20 09:03:25;;;;;;;5.32;1.85;;;36.50;70.10;;;;;;5021587;28;20033;-66
2023/08/20 09:06:02;;;;;;;2.78;2.30;;;37.00;70.60;;;;;;5025474;28;20107;-65
2023/08/20 09:08:29;;;;;;;3.95;2.30;;;36.50;70.20;;;;;;5023324;28;20379;-64
2023/08/20 09:10:58;;;;;;;2.55;1.92;;;36.00;69.50;;;;;;5024003;28;20100;-65
2023/08/20 09:13:38;;;;;;;4.78;2.20;;;35.60;71.80;;;;;;5021312;28;20033;-65
2023/08/20 09:16:09;;;;;;;7.82;2.33;;;35.60;71.10;;;;;;5021826;28;20704;-65
2023/08/20 09:18:41;;;;;;;2.83;2.40;;;35.50;72.30;;;;;;5017951;28;20124;-64
2023/08/20 09:21:12;;;;;;;3.50;2.30;;;35.70;71.20;;;;;;5012961;28;20414;-65
2023/08/20 09:23:38;;;;;;;5.03;3.20;;;35.40;72.50;;;;;;5022617;28;20499;-65
2023/08/20 09:26:05;;;;;;;4.78;3.30;;;35.60;73.10;;;;;;5017285;28;20036;-64
2023/08/20 09:28:42;;;;;;;4.82;3.25;;;36.20;71.30;;;;;;5016330;28;20514;-64
2023/08/20 09:31:08;;;;;;;4.57;3.38;;;36.20;71.80;;;;;;5019424;28;20025;-66
2023/08/20 09:33:33;;;;;;;4.72;3.47;;;36.40;70.80;;;;;;5023395;28;20018;-65
2023/08/20 09:35:59;;;;;;;4.55;3.17;;;36.00;72.60;;;;;;5024887;28;20037;-66
2023/08/20 09:38:24;;;;;;;3.13;2.83;;;36.50;73.70;;;;;;5024551;28;20039;-64
2023/08/20 09:40:53;;;;;;;4.32;3.20;;;35.90;72.40;;;;;;5023943;28;20034;-65
2023/08/20 09:43:20;;;;;;;7.85;3.90;;;35.20;72.90;;;;;;5018927;28;20033;-65
2023/08/20 09:45:47;;;;;;;5.95;4.07;;;34.70;76.20;;;;;;4994275;28;20045;-65
2023/08/20 09:48:19;;;;;;;6.35;4.45;;;34.60;76.20;;;;;;5021866;28;20026;-64
2023/08/20 09:50:46;;;;;;;;;;;34.50;73.80;;;;;;5006836;28;20036;-64
2023/08/20 09:53:18;;;;;;;4.82;3.55;;;34.80;77.40;;;;;;5023095;28;20486;-64
2023/08/20 09:55:46;;;;;;;7.30;4.43;;;34.50;74.50;;;;;;5020505;28;20033;-65
2023/08/20 09:58:13;;;;;;;6.72;3.97;;;33.80;76.20;;;;;;5018731;28;20088;-64
2023/08/20 10:00:39;;;;;;;9.40;4.38;;;34.20;76.70;;;;;;5022621;28;20364;-65
2023/08/20 10:03:04;;;;;;;6.38;3.70;;;34.40;78.10;;;;;;5023185;28;20028;-65
2023/08/20 10:05:31;;;;;;;4.10;3.35;;;34.70;76.60;;;;;;5023968;28;21352;-65
2023/08/20 10:07:58;;;;;;;4.75;3.70;;;34.50;77.40;;;;;;5024885;28;20055;-64
2023/08/20 10:10:25;;;;;;;7.80;4.15;;;34.20;78.40;;;;;;5021965;28;20053;-65
2023/08/20 10:12:51;;;;;;;5.78;4.28;;;34.20;78.90;;;;;;5021064;28;20156;-64
2023/08/20 10:15:17;;;;;;;6.25;4.07;;;34.00;77.80;;;;;;5022998;28;20113;-64
2023/08/20 10:17:45;;;;;;;7.72;4.15;;;34.00;78.90;;;;;;5023661;28;20053;-65
2023/08/20 10:20:15;;;;;;;6.00;3.78;;;33.40;76.60;;;;;;5021629;28;20030;-64
2023/08/20 10:22:45;;;;;;;7.45;5.18;;;32.70;80.70;;;;;;5023989;28;20018;-65
2023/08/20 10:25:21;;;;;;;7.30;4.20;;;31.90;82.10;;;;;;5020634;28;20105;-64
2023/08/20 10:27:47;;;;;;;6.40;4.40;;;31.40;82.20;;;;;;5019945;28;20088;-64
2023/08/20 10:30:24;;;;;;;6.60;4.72;;;30.80;86.90;;;;;;5019540;28;20120;-65
2023/08/20 10:32:57;;;;;;;8.55;4.97;;;30.30;88.10;;;;;;5023862;28;20059;-65
2023/08/20 10:35:25;;;;;;;11.73;4.82;;;29.90;91.80;;;;;;5025006;28;20108;-65
2023/08/20 10:38:05;;;;;;;6.38;4.85;;;29.90;91.60;;;;;;5023423;28;20029;-64
2023/08/20 10:40:51;;;;;;;8.55;4.55;;;29.70;91.50;;;;;;5018956;28;20025;-63
2023/08/20 10:43:26;;;;;;;7.38;4.68;;;29.50;91.10;;;;;;5018043;28;20045;-65
2023/08/20 10:46:03;;;;;;;5.13;3.88;;;29.80;90.40;;;;;;4998288;28;20523;-65
2023/08/20 10:48:30;;;;;;;6.65;4.53;;;29.90;90.10;;;;;;5024235;28;20034;-61
2023/08/20 10:50:56;;;;;;;6.53;4.47;;;30.00;87.50;;;;;;5024013;28;20029;-65
2023/08/20 10:53:23;;;;;;;5.78;4.00;;;30.40;87.00;;;;;;5019644;28;20041;-64
2023/08/20 10:55:49;;;;;;;6.05;4.47;;;30.90;90.30;;;;;;5019478;28;20014;-64
2023/08/20 10:58:15;;;;;;;6.78;4.10;;;30.70;90.30;;;;;;5023495;28;20026;-64
2023/08/20 11:00:42;;;;;;;8.23;4.25;;;31.00;89.50;;;;;;5021870;28;20048;-65
2023/08/20 11:03:08;;;;;;;7.03;5.15;;;31.10;88.50;;;;;;5021914;28;20036;-65
2023/08/20 11:05:34;;;;;;;7.32;4.90;;;30.60;90.30;;;;;;5024836;28;20037;-65
2023/08/20 11:08:00;;;;;;;9.15;5.30;;;30.70;91.10;;;;;;5022668;28;20037;-65
2023/08/20 11:10:26;;;;;;;7.50;4.93;;;30.60;89.70;;;;;;5020652;28;20453;-65
2023/08/20 11:12:52;;;;;;;7.90;4.70;;;31.10;89.50;;;;;;5021010;28;20030;-63
2023/08/20 11:15:18;;;;;;;7.43;4.78;;;31.50;90.20;;;;;;5023128;28;20014;-65
2023/08/20 11:17:46;;;;;;;7.72;5.40;;;31.80;90.30;;;;;;5023733;28;20032;-65
2023/08/20 11:20:15;;;;;;;5.90;4.70;;;31.50;90.00;;;;;;5023704;28;20025;-64
2023/08/20 11:22:41;;;;;;;7.47;4.57;;;31.80;89.70;;;;;;5017597;28;20180;-65
2023/08/20 11:25:11;;;;;;;5.57;4.45;;;31.50;88.30;;;;;;5018519;28;21744;-64
2023/08/20 11:27:40;;;;;;;9.05;5.25;;;31.30;90.00;;;;;;5041664;28;20037;-64
2023/08/20 11:30:09;;;;;;;7.13;4.97;;;30.50;91.00;;;;;;5026994;28;20460;-64
2023/08/20 11:32:35;;;;;;;5.97;4.57;;;30.30;91.00;;;;;;5024610;28;20022;-65
2023/08/20 11:35:01;;;;;;;6.82;5.05;;;30.50;90.30;;;;;;5027574;28;20091;-64
2023/08/20 11:37:27;;;;;;;6.25;4.72;;;30.50;90.20;;;;;;5025362;28;20037;-65
2023/08/20 11:39:52;;;;;;;10.63;4.88;;;30.70;91.00;;;;;;5026981;28;20042;-64
2023/08/20 11:42:19;;;;;;;6.07;4.38;;;30.50;88.70;;;;;;5026704;28;20041;-64
2023/08/20 11:44:49;;;;;;;6.88;5.38;;;30.70;89.50;;;;;;5000092;28;20103;-64
2023/08/20 11:47:18;;;;;;;7.18;4.07;;;31.00;88.40;;;;;;5024794;28;20048;-63
2023/08/20 11:49:44;;;;;;;6.75;4.50;;;31.20;89.20;;;;;;5023117;28;20033;-64
2023/08/20 11:52:13;;;;;;;8.93;5.22;;;31.30;88.10;;;;;;5025767;28;20510;-63
2023/08/20 11:54:38;;;;;;;9.18;5.43;;;30.90;88.10;;;;;;5022358;28;20033;-64
2023/08/20 11:57:05;;;;;;;7.00;5.13;;;30.80;88.50;;;;;;5027430;28;20084;-64
2023/08/20 11:59:31;;;;;;;6.88;5.60;;;30.70;87.70;;;;;;5026118;28;20037;-64
2023/08/20 12:02:05;;;;;;;10.13;5.55;;;30.50;89.90;;;;;;5025959;28;20033;-65
2023/08/20 12:04:31;;;;;;;11.85;5.82;;;30.30;90.70;;;;;;5024860;28;20057;-61
2023/08/20 12:07:06;;;;;;;8.13;5.68;;;30.10;90.90;;;;;;5020421;28;20515;-64
2023/08/20 12:09:32;;;;;;;8.13;5.57;;;29.80;91.30;;;;;;5022700;28;20040;-63
2023/08/20 12:11:58;;;;;;;7.20;5.60;;;29.70;92.40;;;;;;5026712;28;20052;-65
2023/08/20 12:14:24;;;;;;;8.00;5.05;;;29.90;89.90;;;;;;5024511;28;20483;-65
2023/08/20 12:16:53;;;;;;;6.80;5.13;;;29.90;91.30;;;;;;5023001;28;20029;-64
2023/08/20 12:19:19;;;;;;;8.43;5.20;;;29.90;91.40;;;;;;5023943;28;21194;-63
2023/08/20 12:21:45;;;;;;;9.70;5.53;;;30.10;89.30;;;;;;5023758;28;20053;-65
2023/08/20 12:24:11;;;;;;;9.10;5.47;;;30.20;88.60;;;;;;5024647;28;20036;-65
2023/08/20 12:26:40;;;;;;;8.50;5.93;;;30.40;89.70;;;;;;5024770;28;20040;-66
2023/08/20 12:29:06;;;;;;;7.95;5.65;;;30.50;90.00;;;;;;5024254;28;20032;-65
2023/08/20 12:31:33;;;;;;;9.93;6.55;;;30.50;88.30;;;;;;5026058;28;20144;-67
2023/08/20 12:33:59;;;;;;;9.25;5.65;;;30.60;88.70;;;;;;5025876;28;20034;-64
2023/08/20 12:36:25;;;;;;;7.93;6.10;;;30.40;89.30;;;;;;5026081;28;20554;-65
2023/08/20 12:38:51;;;;;;;8.20;5.53;;;30.40;87.50;;;;;;5024555;28;20096;-65
2023/08/20 12:41:16;;;;;;;7.07;5.05;;;30.40;89.20;;;;;;5025422;28;20070;-66